Time;durP1;ratioP1;P1;durP2;ratioP2;P2;SDS_P1;SDS_P2;PMS_P1;PMS_P2;Temp;Humidity;BMP_temperature;BMP_pressure;BME280_temperature;BME280_humidity;BME280_pressure;Samples;Min_cycle;Max_cycle;Signal;HPM_P1;HPM_P2
2023/12/20 00:02:24;;;;;;;21.53;5.57;;;5.30;94.00;;;;;;4829004;29;20270;-92
2023/12/20 00:04:50;;;;;;;13.63;4.57;;;5.30;94.00;;;;;;4829211;29;20571;-90
2023/12/20 00:07:15;;;;;;;15.47;4.70;;;5.40;94.00;;;;;;4829173;29;20179;-93
2023/12/20 00:09:41;;;;;;;22.17;5.30;;;5.50;93.90;;;;;;4828921;29;20203;-92
2023/12/20 00:12:07;;;;;;;23.10;5.50;;;5.50;93.80;;;;;;4829057;29;20184;-92
2023/12/20 00:14:32;;;;;;;14.63;9.53;;;5.40;93.70;;;;;;4845791;29;20760;-93
2023/12/20 00:16:58;;;;;;;21.90;9.90;;;5.40;93.70;;;;;;4831853;29;20671;-90
2023/12/20 00:19:23;;;;;;;27.97;12.00;;;5.40;93.70;;;;;;4828290;29;20251;-92
2023/12/20 00:21:49;;;;;;;17.47;10.13;;;5.40;93.70;;;;;;4828366;29;20211;-92
2023/12/20 00:24:14;;;;;;;23.97;7.50;;;5.50;93.70;;;;;;4828843;29;20191;-90
2023/12/20 00:26:40;;;;;;;23.23;5.67;;;5.50;93.80;;;;;;4829104;29;20195;-91
2023/12/20 00:29:06;;;;;;;16.93;5.00;;;5.50;93.80;;;;;;4828869;29;20207;-91
2023/12/20 00:31:31;;;;;;;18.90;5.07;;;5.50;93.80;;;;;;4828628;29;20190;-91
2023/12/20 00:33:57;;;;;;;23.07;6.33;;;5.50;93.70;;;;;;4828652;29;20207;-92
2023/12/20 00:36:22;;;;;;;26.77;5.53;;;5.50;93.70;;;;;;4828541;29;20217;-91
2023/12/20 00:38:48;;;;;;;20.03;5.13;;;5.50;93.60;;;;;;4828432;29;20195;-92
2023/12/20 00:41:13;;;;;;;27.00;6.10;;;5.40;93.50;;;;;;4828910;29;20187;-91
2023/12/20 00:43:39;;;;;;;21.37;4.97;;;5.40;93.50;;;;;;4828594;29;20191;-92
2023/12/20 00:46:04;;;;;;;18.50;10.27;;;5.40;93.50;;;;;;4828738;29;20179;-92
2023/12/20 00:48:33;;;;;;;21.43;11.10;;;5.50;93.40;;;;;;4844970;29;20196;-92
2023/12/20 00:50:58;;;;;;;15.60;10.40;;;5.40;93.40;;;;;;4828276;29;20186;-91
2023/12/20 00:53:24;;;;;;;21.77;10.83;;;5.30;93.40;;;;;;4828551;29;20207;-93
2023/12/20 00:55:50;;;;;;;25.60;10.93;;;5.40;93.40;;;;;;4828254;29;20286;-92
2023/12/20 00:58:15;;;;;;;20.33;8.90;;;5.40;93.40;;;;;;4828176;29;20182;-92
2023/12/20 01:00:42;;;;;;;20.53;10.17;;;5.30;93.30;;;;;;4828559;29;20210;-92
2023/12/20 01:03:08;;;;;;;19.40;10.40;;;5.40;93.30;;;;;;4829267;29;20179;-92
2023/12/20 01:05:33;;;;;;;23.97;10.23;;;5.40;93.10;;;;;;4827859;29;20186;-92
2023/12/20 01:07:59;;;;;;;23.80;10.70;;;5.30;93.10;;;;;;4828288;29;20183;-91
2023/12/20 01:10:28;;;;;;;23.73;10.23;;;5.30;93.20;;;;;;4828169;29;20200;-91
2023/12/20 01:12:53;;;;;;;18.13;10.60;;;5.30;93.30;;;;;;4828166;29;20193;-91
2023/12/20 01:15:19;;;;;;;31.40;11.53;;;5.30;93.20;;;;;;4827741;29;20303;-92
2023/12/20 01:17:45;;;;;;;14.00;5.87;;;5.20;93.30;;;;;;4827802;29;20249;-93
2023/12/20 01:20:10;;;;;;;18.65;5.90;;;5.20;93.40;;;;;;4827648;29;20288;-93
2023/12/20 01:22:36;;;;;;;21.60;6.27;;;5.10;93.50;;;;;;4827875;29;20198;-92
2023/12/20 01:25:02;;;;;;;25.97;5.77;;;5.10;93.70;;;;;;4827950;29;20183;-91
2023/12/20 01:27:28;;;;;;;23.27;5.20;;;5.20;93.80;;;;;;4828041;29;20278;-92
2023/12/20 01:29:54;;;;;;;21.63;4.90;;;5.10;93.80;;;;;;4827621;29;20267;-91
2023/12/20 01:32:19;;;;;;;16.87;5.40;;;5.10;93.90;;;;;;4844380;29;20183;-93
2023/12/20 01:34:45;;;;;;;10.83;4.50;;;5.20;94.00;;;;;;4827694;29;20764;-91
2023/12/20 01:37:10;;;;;;;26.93;5.50;;;5.20;93.80;;;;;;4836763;29;20239;-91
2023/12/20 01:39:36;;;;;;;22.80;5.20;;;5.20;93.80;;;;;;4827625;29;20347;-92
2023/12/20 01:42:02;;;;;;;19.43;9.97;;;5.10;93.90;;;;;;4827886;29;20194;-94
2023/12/20 01:44:27;;;;;;;22.63;10.43;;;5.10;94.00;;;;;;4827909;29;20183;-92
2023/12/20 01:46:53;;;;;;;25.00;10.43;;;5.10;94.00;;;;;;4827840;29;20182;-92
2023/12/20 01:49:19;;;;;;;16.90;9.30;;;5.10;94.10;;;;;;4842920;29;20248;-93
2023/12/20 01:51:46;;;;;;;25.30;10.43;;;5.20;94.10;;;;;;4827441;29;20179;-92
2023/12/20 01:54:12;;;;;;;18.40;9.67;;;5.20;94.00;;;;;;4842989;29;20226;-92
2023/12/20 01:56:38;;;;;;;26.43;10.27;;;5.20;94.20;;;;;;4827771;29;20645;-92
2023/12/20 01:59:04;;;;;;;22.23;9.57;;;5.20;94.20;;;;;;4842509;29;20203;-93
2023/12/20 02:01:30;;;;;;;12.87;9.47;;;5.30;94.00;;;;;;4827811;29;20238;-92
2023/12/20 02:03:56;;;;;;;27.77;8.93;;;5.30;93.90;;;;;;4828187;29;20268;-92
2023/12/20 02:06:24;;;;;;;22.00;9.80;;;5.30;93.80;;;;;;4827880;29;20190;-92
2023/12/20 02:08:50;;;;;;;16.70;4.50;;;5.30;93.80;;;;;;4828034;29;20180;-92
2023/12/20 02:11:16;;;;;;;19.87;5.57;;;5.40;93.70;;;;;;4828111;29;20187;-92
2023/12/20 02:13:42;;;;;;;12.40;5.20;;;5.40;93.70;;;;;;4827418;29;20183;-92
2023/12/20 02:16:07;;;;;;;12.60;4.83;;;5.40;93.60;;;;;;4827977;29;20298;-92
2023/12/20 02:18:33;;;;;;;8.10;3.67;;;5.40;93.60;;;;;;4827654;29;20191;-91
2023/12/20 02:20:59;;;;;;;9.30;4.17;;;5.50;93.60;;;;;;4827317;29;20682;-92
2023/12/20 02:23:24;;;;;;;8.43;4.10;;;5.40;93.60;;;;;;4827393;29;20559;-91
2023/12/20 02:25:50;;;;;;;19.87;5.10;;;5.40;93.60;;;;;;4827346;29;20285;-91
2023/12/20 02:28:16;;;;;;;19.93;4.80;;;5.40;93.60;;;;;;4827246;29;20186;-91
2023/12/20 02:30:42;;;;;;;17.87;4.90;;;5.40;93.60;;;;;;4827496;29;20199;-91
2023/12/20 02:33:10;;;;;;;13.60;9.80;;;5.40;93.40;;;;;;4826966;29;20385;-91
2023/12/20 02:35:36;;;;;;;20.43;10.67;;;5.50;93.30;;;;;;4827753;29;20309;-91
2023/12/20 02:38:01;;;;;;;20.07;10.30;;;5.40;93.30;;;;;;4826938;29;20280;-92
2023/12/20 02:40:27;;;;;;;19.77;10.60;;;5.50;93.40;;;;;;4827451;29;20203;-91
2023/12/20 02:42:52;;;;;;;17.47;9.37;;;5.50;93.40;;;;;;4827508;29;20553;-92
2023/12/20 02:45:18;;;;;;;17.33;9.33;;;5.40;93.50;;;;;;4828129;29;20218;-91
2023/12/20 02:47:43;;;;;;;21.50;9.10;;;5.40;93.50;;;;;;4827497;29;20270;-92
2023/12/20 02:50:08;;;;;;;24.73;9.93;;;5.40;93.60;;;;;;4827673;29;20255;-93
2023/12/20 02:52:34;;;;;;;21.20;10.73;;;5.40;93.60;;;;;;4827185;29;20209;-93
2023/12/20 02:55:00;;;;;;;17.33;9.27;;;5.40;93.60;;;;;;4842278;29;20215;-93
2023/12/20 02:57:25;;;;;;;13.83;9.40;;;5.40;93.60;;;;;;4827243;29;20545;-92
2023/12/20 02:59:50;;;;;;;23.67;9.90;;;5.50;93.60;;;;;;4827885;29;20278;-92
2023/12/20 03:02:16;;;;;;;16.23;5.20;;;5.40;93.50;;;;;;4827420;29;20180;-91
2023/12/20 03:04:41;;;;;;;20.73;5.40;;;5.50;93.20;;;;;;4827643;29;20189;-91
2023/12/20 03:07:07;;;;;;;18.60;5.07;;;5.50;93.20;;;;;;4827727;29;20207;-93
2023/12/20 03:09:32;;;;;;;9.87;5.10;;;5.50;93.30;;;;;;4827810;29;20747;-93
2023/12/20 03:11:58;;;;;;;14.97;4.77;;;5.50;93.30;;;;;;4829220;29;20274;-93
2023/12/20 03:14:24;;;;;;;16.70;4.93;;;5.50;93.30;;;;;;4830447;29;20632;-92
2023/12/20 03:16:49;;;;;;;17.07;6.00;;;5.40;93.40;;;;;;4830507;29;20190;-92
2023/12/20 03:19:16;;;;;;;18.27;4.90;;;5.40;93.60;;;;;;4830523;29;20583;-93
2023/12/20 03:21:41;;;;;;;17.50;5.10;;;5.40;93.60;;;;;;4830440;29;20187;-92
2023/12/20 03:24:07;;;;;;;20.80;4.50;;;5.30;93.60;;;;;;4830212;29;20214;-92
2023/12/20 03:26:32;;;;;;;21.47;10.37;;;5.40;93.60;;;;;;4829978;29;20179;-93
2023/12/20 03:28:58;;;;;;;22.17;10.17;;;5.40;93.60;;;;;;4829916;29;20203;-93
2023/12/20 03:31:23;;;;;;;25.73;10.07;;;5.50;93.50;;;;;;4830049;29;20194;-92
2023/12/20 03:33:50;;;;;;;13.80;9.80;;;5.50;93.40;;;;;;4846367;29;20183;-92
2023/12/20 03:36:16;;;;;;;20.37;10.30;;;5.40;93.40;;;;;;4829755;29;20432;-91
2023/12/20 03:38:42;;;;;;;16.73;9.27;;;5.40;93.50;;;;;;4829844;29;20636;-93
2023/12/20 03:41:07;;;;;;;20.70;9.23;;;5.40;93.60;;;;;;4830618;29;20270;-94
2023/12/20 03:43:33;;;;;;;14.10;8.43;;;5.50;93.50;;;;;;4830239;29;20179;-92
2023/12/20 03:45:59;;;;;;;20.67;9.93;;;5.50;93.30;;;;;;4829910;29;20186;-92
2023/12/20 03:48:25;;;;;;;17.43;9.67;;;5.50;93.40;;;;;;4829929;29;20183;-91
2023/12/20 03:50:51;;;;;;;20.83;9.43;;;5.40;93.70;;;;;;4829425;29;20306;-92
2023/12/20 03:53:16;;;;;;;18.70;8.80;;;5.50;93.80;;;;;;4829569;29;20256;-92
2023/12/20 03:55:42;;;;;;;27.57;6.40;;;5.50;93.90;;;;;;4830066;29;20208;-91
2023/12/20 03:58:07;;;;;;;16.47;4.90;;;5.40;94.00;;;;;;4829387;29;20179;-91
2023/12/20 04:00:33;;;;;;;25.47;5.83;;;5.40;94.10;;;;;;4829267;29;20684;-93
2023/12/20 04:02:58;;;;;;;8.90;4.67;;;5.40;94.10;;;;;;4828860;29;20187;-91
2023/12/20 04:05:24;;;;;;;11.70;4.07;;;5.50;94.10;;;;;;4829494;29;20191;-93
2023/12/20 04:07:50;;;;;;;14.97;4.10;;;5.50;94.00;;;;;;4845588;29;20519;-92
2023/12/20 04:10:16;;;;;;;13.93;5.07;;;5.50;94.00;;;;;;4829071;29;20207;-93
2023/12/20 04:12:41;;;;;;;15.53;4.50;;;5.50;94.00;;;;;;4844703;29;20282;-92
2023/12/20 04:15:09;;;;;;;17.43;5.03;;;5.50;93.80;;;;;;4829285;29;20207;-93
2023/12/20 04:17:35;;;;;;;16.00;5.40;;;5.60;93.60;;;;;;4829364;29;20195;-92
2023/12/20 04:20:02;;;;;;;21.87;9.60;;;5.60;93.50;;;;;;4829233;29;20200;-92
2023/12/20 04:22:27;;;;;;;20.00;10.10;;;5.60;93.50;;;;;;4828558;29;20187;-91
2023/12/20 04:24:53;;;;;;;17.13;10.40;;;5.70;93.30;;;;;;4828857;29;20565;-92
2023/12/20 04:27:18;;;;;;;12.00;9.93;;;5.70;93.30;;;;;;4829119;29;20187;-92
2023/12/20 04:29:44;;;;;;;11.53;9.23;;;5.60;93.30;;;;;;4829285;29;20207;-93
2023/12/20 04:32:09;;;;;;;27.90;10.70;;;5.70;93.10;;;;;;4829005;29;20190;-91
2023/12/20 04:34:36;;;;;;;19.77;10.07;;;5.70;93.10;;;;;;4828923;29;20211;-93
2023/12/20 04:37:01;;;;;;;28.07;10.67;;;5.60;93.10;;;;;;4829579;29;20188;-94
2023/12/20 04:39:27;;;;;;;25.80;11.63;;;5.70;93.10;;;;;;4828973;29;20217;-92
2023/12/20 04:41:53;;;;;;;15.10;10.10;;;5.60;93.00;;;;;;4828770;29;20183;-93
2023/12/20 04:44:18;;;;;;;20.03;10.87;;;5.60;93.10;;;;;;4829477;29;20188;-91
2023/12/20 04:46:44;;;;;;;24.73;7.07;;;5.60;93.10;;;;;;4829141;29;20575;-91
2023/12/20 04:49:09;;;;;;;22.03;6.37;;;5.70;93.00;;;;;;4828860;29;20207;-94
2023/12/20 04:51:35;;;;;;;15.03;5.80;;;5.70;92.90;;;;;;4828526;29;20183;-91
2023/12/20 04:54:01;;;;;;;22.10;6.30;;;5.80;92.80;;;;;;4828850;29;20202;-91
2023/12/20 04:56:27;;;;;;;23.00;5.63;;;5.70;92.80;;;;;;4828952;29;20676;-91
2023/12/20 04:58:53;;;;;;;15.57;5.77;;;5.80;92.80;;;;;;4844488;29;20211;-92
2023/12/20 05:01:18;;;;;;;21.70;7.57;;;5.70;92.80;;;;;;4828770;29;20611;-91
2023/12/20 05:03:44;;;;;;;20.67;7.53;;;5.70;92.70;;;;;;4828754;29;20186;-92
2023/12/20 05:06:10;;;;;;;14.93;5.67;;;5.70;92.90;;;;;;4829127;29;20179;-92
2023/12/20 05:08:36;;;;;;;18.93;5.13;;;5.80;92.90;;;;;;4829627;29;20705;-93
2023/12/20 05:11:01;;;;;;;21.43;10.63;;;5.80;92.80;;;;;;4829117;29;20184;-92
2023/12/20 05:13:27;;;;;;;20.83;9.10;;;5.80;92.70;;;;;;4828685;29;20188;-92
2023/12/20 05:15:52;;;;;;;13.90;9.37;;;5.80;92.80;;;;;;4845418;29;20215;-91
2023/12/20 05:18:18;;;;;;;21.53;11.37;;;5.80;93.00;;;;;;4829235;29;20278;-91
2023/12/20 05:20:44;;;;;;;15.50;9.17;;;5.80;93.10;;;;;;4828682;29;20207;-93
2023/12/20 05:23:09;;;;;;;21.27;9.13;;;5.80;93.50;;;;;;4829272;29;20182;-92
2023/12/20 05:25:35;;;;;;;17.93;9.00;;;5.70;93.60;;;;;;4830301;29;20187;-92
2023/12/20 05:28:00;;;;;;;13.63;8.23;;;5.70;93.70;;;;;;4828771;29;20194;-92
2023/12/20 05:30:26;;;;;;;17.60;10.03;;;5.70;93.80;;;;;;4828661;29;20207;-92
2023/12/20 05:32:52;;;;;;;19.10;9.53;;;5.70;93.80;;;;;;4828610;29;20198;-92
2023/12/20 05:35:17;;;;;;;12.13;8.20;;;5.70;93.80;;;;;;4827877;29;20214;-92
2023/12/20 05:37:43;;;;;;;16.17;7.53;;;5.70;93.80;;;;;;4828074;29;20557;-92
2023/12/20 05:40:11;;;;;;;16.00;5.65;;;5.80;93.70;;;;;;4828241;29;20213;-93
2023/12/20 05:42:37;;;;;;;18.67;5.37;;;5.70;93.70;;;;;;4828188;29;20240;-92
2023/12/20 05:45:04;;;;;;;13.53;4.53;;;5.80;93.30;;;;;;4828498;29;20217;-92
2023/12/20 05:47:29;;;;;;;22.03;6.30;;;5.80;93.00;;;;;;4828099;29;20708;-92
2023/12/20 05:49:55;;;;;;;23.70;5.77;;;5.80;92.70;;;;;;4828041;29;20293;-90
2023/12/20 05:52:20;;;;;;;14.20;4.53;;;5.80;92.80;;;;;;4828469;29;20718;-92
2023/12/20 05:54:46;;;;;;;14.77;5.07;;;5.80;92.90;;;;;;4827643;29;20207;-93
2023/12/20 05:57:11;;;;;;;22.63;5.87;;;5.80;92.80;;;;;;4828275;29;20179;-93
2023/12/20 05:59:37;;;;;;;17.07;6.60;;;5.80;93.00;;;;;;4828192;29;20196;-92
2023/12/20 06:02:04;;;;;;;18.40;11.17;;;5.80;93.00;;;;;;4828154;29;20182;-90
2023/12/20 06:04:29;;;;;;;21.53;12.03;;;5.80;93.00;;;;;;4843308;29;20187;-92
2023/12/20 06:06:55;;;;;;;20.60;10.50;;;5.80;93.00;;;;;;4828574;29;20429;-92
2023/12/20 06:09:20;;;;;;;;;;;5.80;92.90;;;;;;4829809;29;20744;-91
2023/12/20 06:11:46;;;;;;;;;;;5.90;92.60;;;;;;4844020;29;19931;-92
2023/12/20 06:14:11;;;;;;;17.37;9.00;;;5.90;92.40;;;;;;4843633;29;20756;-91
2023/12/20 06:16:37;;;;;;;13.97;9.63;;;5.90;92.50;;;;;;4829140;29;20184;-91
2023/12/20 06:19:02;;;;;;;21.43;10.50;;;6.00;92.30;;;;;;4828839;29;20203;-93
2023/12/20 06:21:28;;;;;;;29.73;11.00;;;6.00;91.90;;;;;;4828481;29;20183;-92
2023/12/20 06:23:53;;;;;;;19.23;10.17;;;6.00;91.80;;;;;;4844357;29;20187;-93
2023/12/20 06:26:19;;;;;;;33.93;13.73;;;6.00;92.00;;;;;;4828770;29;20186;-92
2023/12/20 06:28:45;;;;;;;23.33;12.83;;;6.00;92.10;;;;;;4828338;29;20556;-92
2023/12/20 06:31:10;;;;;;;21.80;7.17;;;6.00;92.20;;;;;;4827986;29;20232;-94
2023/12/20 06:33:36;;;;;;;12.30;5.30;;;6.00;92.10;;;;;;4827941;29;20175;-92
2023/12/20 06:36:02;;;;;;;24.07;6.67;;;6.00;92.10;;;;;;4827475;29;20211;-91
2023/12/20 06:38:27;;;;;;;27.40;6.07;;;6.00;92.20;;;;;;4828813;29;20286;-92
2023/12/20 06:40:54;;;;;;;16.33;5.73;;;6.00;92.50;;;;;;4827786;29;20252;-92
2023/12/20 06:43:19;;;;;;;17.77;5.10;;;5.90;92.70;;;;;;4828035;29;20179;-90
2023/12/20 06:45:47;;;;;;;23.37;6.77;;;5.90;92.60;;;;;;4829720;29;20214;-91
2023/12/20 06:48:13;;;;;;;14.73;5.77;;;6.00;92.60;;;;;;4829046;29;20703;-91
2023/12/20 06:50:40;;;;;;;21.67;6.17;;;5.90;92.50;;;;;;4828414;29;20290;-93
2023/12/20 06:53:06;;;;;;;16.63;7.07;;;6.00;92.40;;;;;;4827505;29;20203;-93
2023/12/20 06:55:33;;;;;;;23.13;12.27;;;6.00;92.40;;;;;;4830298;29;20211;-92
2023/12/20 06:57:59;;;;;;;22.13;11.57;;;6.00;92.40;;;;;;4847858;29;20259;-92
2023/12/20 07:00:25;;;;;;;29.13;13.20;;;6.00;92.50;;;;;;4843149;29;20630;-92
2023/12/20 07:02:51;;;;;;;23.40;11.97;;;6.00;92.50;;;;;;4834862;29;20278;-91
2023/12/20 07:05:19;;;;;;;23.77;13.63;;;6.00;92.40;;;;;;4829360;29;20230;-91
2023/12/20 07:07:46;;;;;;;26.30;13.03;;;6.00;92.40;;;;;;4828066;29;20155;-92
2023/12/20 07:10:11;;;;;;;21.57;10.60;;;6.10;92.30;;;;;;4843920;29;20246;-93
2023/12/20 07:12:37;;;;;;;22.77;10.83;;;6.10;92.30;;;;;;4827510;29;20187;-91
2023/12/20 07:15:05;;;;;;;22.30;10.60;;;6.20;92.10;;;;;;4829180;29;20287;-89
2023/12/20 07:17:30;;;;;;;32.53;10.57;;;6.10;92.00;;;;;;4828419;29;20191;-92
2023/12/20 07:19:56;;;;;;;28.43;11.33;;;6.10;92.00;;;;;;4826722;29;20224;-89
2023/12/20 07:22:22;;;;;;;31.53;8.77;;;6.10;92.10;;;;;;4827573;29;20228;-91
2023/12/20 07:24:48;;;;;;;43.73;9.23;;;6.00;92.30;;;;;;4827473;29;20183;-93
2023/12/20 07:27:13;;;;;;;20.67;7.07;;;6.00;92.30;;;;;;4826836;29;20616;-92
2023/12/20 07:29:39;;;;;;;28.40;7.83;;;6.00;92.30;;;;;;4828389;29;20228;-92
2023/12/20 07:32:05;;;;;;;18.40;6.13;;;6.00;92.50;;;;;;4827459;29;20188;-92
2023/12/20 07:34:30;;;;;;;19.13;6.43;;;6.00;92.70;;;;;;4842834;29;20251;-92
2023/12/20 07:36:56;;;;;;;19.83;6.47;;;6.00;92.70;;;;;;4827836;29;20207;-92
2023/12/20 07:39:21;;;;;;;28.03;7.50;;;6.00;92.70;;;;;;4827832;29;20695;-92
2023/12/20 07:41:47;;;;;;;22.70;7.70;;;6.10;92.50;;;;;;4828339;29;20195;-93
2023/12/20 07:44:12;;;;;;;17.60;6.10;;;6.10;92.30;;;;;;4828189;29;20585;-92
2023/12/20 07:46:38;;;;;;;43.90;12.13;;;6.10;92.30;;;;;;4827329;29;20190;-92
2023/12/20 07:49:05;;;;;;;15.13;10.13;;;6.10;92.20;;;;;;4827030;29;20287;-93
2023/12/20 07:51:31;;;;;;;27.97;11.30;;;6.10;92.20;;;;;;4827478;29;20238;-91
2023/12/20 07:53:56;;;;;;;14.23;9.43;;;6.20;92.10;;;;;;4845177;29;20648;-92
2023/12/20 07:56:22;;;;;;;20.27;10.07;;;6.30;91.40;;;;;;4829692;29;20261;-93
2023/12/20 07:58:48;;;;;;;19.63;10.10;;;6.30;91.50;;;;;;4831511;29;20245;-91
2023/12/20 08:01:18;;;;;;;27.63;11.80;;;6.30;91.50;;;;;;4832387;29;20214;-93
2023/12/20 08:03:43;;;;;;;16.37;10.33;;;6.30;91.50;;;;;;4831859;29;20179;-93
2023/12/20 08:06:09;;;;;;;19.80;10.07;;;6.20;91.90;;;;;;4831363;29;20191;-92
2023/12/20 08:08:34;;;;;;;21.67;10.80;;;6.20;92.30;;;;;;4830384;29;20067;-92
2023/12/20 08:11:00;;;;;;;17.63;9.00;;;6.20;92.20;;;;;;4830304;29;20195;-92
2023/12/20 08:13:26;;;;;;;11.40;9.20;;;6.20;92.20;;;;;;4830164;29;20187;-93
2023/12/20 08:15:55;;;;;;;18.30;6.57;;;6.20;92.30;;;;;;4846332;29;20223;-92
2023/12/20 08:18:22;;;;;;;22.40;7.20;;;6.30;92.10;;;;;;4829889;29;20230;-91
2023/12/20 08:20:48;;;;;;;27.07;7.07;;;6.30;92.20;;;;;;4830547;29;20207;-91
2023/12/20 08:23:15;;;;;;;18.40;7.77;;;6.30;92.30;;;;;;4830330;29;20666;-92
2023/12/20 08:25:40;;;;;;;28.00;7.23;;;6.30;92.40;;;;;;4830020;29;20194;-88
2023/12/20 08:28:06;;;;;;;19.33;7.10;;;6.40;92.40;;;;;;4830410;29;20270;-89
2023/12/20 08:30:32;;;;;;;24.90;7.43;;;6.40;92.20;;;;;;4831147;29;20242;-93
2023/12/20 08:33:00;;;;;;;19.92;6.80;;;6.40;92.30;;;;;;4832949;29;20344;-91
2023/12/20 08:35:25;;;;;;;22.50;5.50;;;6.30;92.50;;;;;;4829758;29;20584;-91
2023/12/20 08:37:51;;;;;;;22.20;7.90;;;6.30;92.40;;;;;;4830037;29;20180;-92
2023/12/20 08:40:16;;;;;;;27.83;10.37;;;6.30;92.50;;;;;;4830423;29;20555;-93
2023/12/20 08:42:42;;;;;;;16.57;8.37;;;6.30;92.70;;;;;;4831895;29;20179;-92
2023/12/20 08:45:08;;;;;;;15.43;9.77;;;6.30;92.90;;;;;;4830982;29;20668;-94
2023/12/20 08:47:33;;;;;;;12.63;8.93;;;6.30;92.70;;;;;;4846180;29;20180;-92
2023/12/20 08:50:00;;;;;;;22.20;9.23;;;6.30;92.60;;;;;;4832252;29;20207;-93
2023/12/20 08:52:27;;;;;;;16.23;9.53;;;6.30;92.80;;;;;;4834637;29;20208;-93
2023/12/20 08:54:53;;;;;;;17.63;8.77;;;6.20;92.90;;;;;;4835926;29;20228;-89
2023/12/20 08:57:23;;;;;;;10.87;7.83;;;6.20;92.70;;;;;;4851814;29;20183;-93
2023/12/20 08:59:49;;;;;;;22.23;9.73;;;6.20;92.70;;;;;;4834254;29;20210;-92
2023/12/20 09:02:15;;;;;;;13.10;8.33;;;6.20;93.30;;;;;;4834163;29;20183;-89
2023/12/20 09:04:41;;;;;;;14.87;8.40;;;6.10;93.60;;;;;;4850282;29;20188;-93
2023/12/20 09:07:07;;;;;;;8.37;7.87;;;5.80;93.20;;;;;;4834241;29;20198;-91
2023/12/20 09:09:33;;;;;;;5.77;4.67;;;5.30;92.60;;;;;;4849465;29;20255;-94
2023/12/20 09:11:59;;;;;;;9.40;4.50;;;5.20;92.80;;;;;;4833606;29;20243;-93
2023/12/20 09:14:24;;;;;;;5.10;4.57;;;5.20;93.30;;;;;;4832959;29;20232;-93
2023/12/20 09:16:51;;;;;;;4.70;4.30;;;5.20;92.90;;;;;;4830486;29;20564;-93
2023/12/20 09:19:18;;;;;;;5.00;4.27;;;5.10;92.40;;;;;;4829494;29;20230;-93
2023/12/20 09:21:43;;;;;;;4.83;4.50;;;5.10;92.50;;;;;;4828966;29;20299;-90
2023/12/20 09:24:09;;;;;;;4.67;4.27;;;5.10;92.40;;;;;;4843227;29;20190;-92
2023/12/20 09:26:35;;;;;;;5.70;4.87;;;5.00;92.40;;;;;;4842827;29;20191;-91
2023/12/20 09:29:00;;;;;;;5.47;5.10;;;5.00;92.50;;;;;;4832657;29;20203;-91
2023/12/20 09:31:26;;;;;;;;;;;5.00;92.30;;;;;;4834226;29;20195;-93
2023/12/20 09:33:52;;;;;;;;;;;5.00;92.00;;;;;;4843211;29;19926;-91
2023/12/20 09:36:17;;;;;;;;;;;5.00;92.10;;;;;;4843270;29;19971;-92
2023/12/20 09:38:43;;;;;;;8.90;8.00;;;5.00;92.10;;;;;;4842906;29;20362;-94
2023/12/20 09:41:08;;;;;;;8.97;8.37;;;4.90;92.20;;;;;;4827336;29;20231;-92
2023/12/20 09:43:37;;;;;;;9.40;8.70;;;4.80;92.00;;;;;;4827776;29;20719;-92
2023/12/20 09:46:06;;;;;;;9.80;8.90;;;4.90;92.20;;;;;;4828258;29;19914;-91
2023/12/20 09:48:33;;;;;;;8.57;7.77;;;4.90;92.20;;;;;;4828266;29;20186;-92
2023/12/20 09:50:59;;;;;;;9.47;8.53;;;4.80;92.20;;;;;;4827200;29;20192;-92
2023/12/20 09:53:29;;;;;;;8.80;8.00;;;4.80;92.30;;;;;;4827806;29;20200;-92
2023/12/20 09:55:59;;;;;;;8.70;8.00;;;4.80;92.40;;;;;;4827469;29;20073;-93
2023/12/20 09:58:24;;;;;;;8.77;8.17;;;4.80;92.50;;;;;;4827316;29;20179;-92
2023/12/20 10:00:51;;;;;;;9.00;4.87;;;4.80;92.40;;;;;;4827745;29;20213;-91
2023/12/20 10:03:17;;;;;;;6.83;4.83;;;4.80;92.40;;;;;;4827413;29;20640;-92
2023/12/20 10:05:44;;;;;;;4.97;3.90;;;4.80;92.40;;;;;;4833473;29;20187;-90
2023/12/20 10:08:09;;;;;;;6.90;4.07;;;4.90;92.50;;;;;;4828723;29;20572;-88
2023/12/20 10:10:35;;;;;;;5.43;3.57;;;4.80;92.50;;;;;;4843276;29;20217;-91
2023/12/20 10:13:09;;;;;;;6.50;4.33;;;4.90;92.60;;;;;;4828689;29;20198;-92
2023/12/20 10:15:36;;;;;;;13.00;4.65;;;4.90;92.40;;;;;;4827011;29;20268;-91
2023/12/20 10:18:02;;;;;;;7.63;5.03;;;4.90;92.60;;;;;;4827268;29;20610;-93
2023/12/20 10:20:28;;;;;;;4.07;3.67;;;4.90;92.50;;;;;;4826379;29;20203;-91
2023/12/20 10:22:55;;;;;;;7.13;4.40;;;4.90;92.60;;;;;;4826966;29;20667;-91
2023/12/20 10:25:21;;;;;;;7.50;4.10;;;4.90;92.50;;;;;;4826874;29;20191;-92
2023/12/20 10:27:47;;;;;;;8.80;7.90;;;4.90;92.50;;;;;;4827015;29;20187;-92
2023/12/20 10:30:14;;;;;;;13.73;8.20;;;5.00;92.50;;;;;;4827071;29;20208;-92
2023/12/20 10:32:40;;;;;;;12.13;8.80;;;5.00;92.60;;;;;;4827674;29;20210;-91
2023/12/20 10:35:06;;;;;;;14.90;8.20;;;5.00;92.60;;;;;;4843786;29;20583;-92
2023/12/20 10:37:38;;;;;;;12.90;8.50;;;5.00;92.70;;;;;;4827555;29;20280;-92
2023/12/20 10:40:06;;;;;;;11.90;7.90;;;5.00;92.70;;;;;;4842475;29;20218;-92
2023/12/20 10:42:33;;;;;;;11.20;7.30;;;5.00;92.80;;;;;;4828320;29;20179;-92
2023/12/20 10:45:00;;;;;;;13.90;7.47;;;5.10;92.90;;;;;;4827823;29;20183;-92
2023/12/20 10:47:29;;;;;;;13.87;7.23;;;5.10;92.90;;;;;;4828573;29;20194;-92
2023/12/20 10:49:54;;;;;;;15.33;8.73;;;5.20;93.10;;;;;;4828157;29;20706;-92
2023/12/20 10:52:24;;;;;;;11.63;8.63;;;5.20;93.20;;;;;;4828235;29;20207;-92
2023/12/20 10:54:50;;;;;;;9.10;4.23;;;5.20;93.20;;;;;;4827864;29;20218;-92
2023/12/20 10:57:19;;;;;;;7.70;4.03;;;5.20;93.20;;;;;;4827948;29;20187;-92
2023/12/20 10:59:49;;;;;;;12.00;4.50;;;5.20;93.20;;;;;;4827758;29;20203;-93
2023/12/20 11:02:14;;;;;;;13.97;5.00;;;5.20;93.30;;;;;;4827197;29;20683;-92
2023/12/20 11:04:56;;;;;;;21.33;5.57;;;5.20;93.40;;;;;;4826877;29;20366;-92
2023/12/20 11:07:39;;;;;;;16.33;4.93;;;5.20;93.70;;;;;;4833797;29;20159;-90
2023/12/20 11:10:24;;;;;;;14.87;4.77;;;5.20;93.80;;;;;;4851344;29;20192;-91
2023/12/20 11:13:23;;;;;;;11.67;5.03;;;5.30;93.90;;;;;;4862412;29;20184;-92
2023/12/20 11:15:49;;;;;;;20.83;5.53;;;5.40;93.90;;;;;;4843771;29;20230;-91
2023/12/20 11:18:15;;;;;;;12.43;5.13;;;5.30;93.90;;;;;;4842667;29;20191;-89
2023/12/20 11:20:42;;;;;;;20.85;8.65;;;5.30;93.90;;;;;;4825871;29;20203;-91
2023/12/20 11:23:11;;;;;;;23.03;10.00;;;5.30;93.80;;;;;;4825871;29;20184;-92
2023/12/20 11:25:53;;;;;;;20.00;9.27;;;5.30;93.80;;;;;;4826156;29;20219;-90
2023/12/20 11:28:23;;;;;;;16.23;8.57;;;5.40;93.80;;;;;;4859546;29;20171;-91
2023/12/20 11:30:55;;;;;;;23.77;9.13;;;5.40;93.70;;;;;;4834814;29;20200;-91
2023/12/20 11:33:25;;;;;;;17.70;9.33;;;5.40;93.70;;;;;;4835812;29;20201;-93
2023/12/20 11:35:51;;;;;;;22.10;8.90;;;5.50;93.60;;;;;;4836603;29;20314;-92
2023/12/20 11:38:16;;;;;;;28.37;10.27;;;5.60;93.70;;;;;;4839056;29;20225;-92
2023/12/20 11:40:43;;;;;;;33.43;10.27;;;5.60;93.60;;;;;;4835060;29;20207;-92
2023/12/20 11:43:09;;;;;;;26.47;9.63;;;5.60;93.60;;;;;;4837468;29;20668;-92
2023/12/20 11:45:35;;;;;;;26.23;9.93;;;5.70;93.70;;;;;;4838558;29;20286;-91
2023/12/20 11:48:02;;;;;;;27.17;6.40;;;5.80;93.20;;;;;;4837278;29;20282;-91
2023/12/20 11:50:29;;;;;;;22.23;7.13;;;5.80;92.60;;;;;;4852109;29;20775;-91
2023/12/20 11:52:56;;;;;;;23.70;7.00;;;6.10;91.80;;;;;;4838219;29;20210;-93
2023/12/20 11:55:24;;;;;;;25.00;8.17;;;6.20;92.10;;;;;;4849185;29;20223;-90
2023/12/20 11:57:51;;;;;;;30.17;9.57;;;6.30;90.80;;;;;;4847825;29;20183;-90
2023/12/20 12:00:17;;;;;;;19.37;9.40;;;6.40;89.40;;;;;;4830589;29;20214;-93
2023/12/20 12:02:43;;;;;;;20.37;9.60;;;6.30;88.10;;;;;;4836102;29;20249;-92
2023/12/20 12:05:08;;;;;;;26.47;11.17;;;6.50;88.60;;;;;;4839373;29;20214;-91
2023/12/20 12:07:35;;;;;;;28.37;11.43;;;6.60;88.00;;;;;;4843359;29;20207;-91
2023/12/20 12:10:01;;;;;;;18.20;9.63;;;6.70;88.20;;;;;;4862994;29;20270;-93
2023/12/20 12:12:27;;;;;;;27.93;13.97;;;6.80;88.50;;;;;;4840855;29;20194;-92
2023/12/20 12:15:05;;;;;;;22.50;13.67;;;6.80;88.60;;;;;;4858993;29;20206;-89
2023/12/20 12:17:30;;;;;;;29.77;17.63;;;6.70;88.40;;;;;;4855564;29;20171;-91
2023/12/20 12:20:06;;;;;;;31.03;20.03;;;6.70;87.20;;;;;;4834364;29;20204;-92
2023/12/20 12:22:33;;;;;;;20.23;18.10;;;6.70;86.50;;;;;;4929622;23;20216;-92
2023/12/20 12:30:07;;;;;;;28.87;18.60;;;6.80;86.80;;;;;;4910763;29;20237;-93
2023/12/20 12:32:32;;;;;;;22.90;17.97;;;6.90;86.90;;;;;;4893339;29;20174;-92
2023/12/20 12:34:58;;;;;;;25.93;18.07;;;6.80;86.60;;;;;;4900609;29;20213;-91
2023/12/20 12:37:24;;;;;;;25.10;18.80;;;6.70;86.70;;;;;;4901365;29;20653;-91
2023/12/20 12:39:50;;;;;;;27.80;19.50;;;6.50;86.80;;;;;;4888850;29;20297;-89
2023/12/20 12:42:15;;;;;;;23.57;18.57;;;6.50;87.10;;;;;;4884743;29;20196;-90
2023/12/20 12:44:41;;;;;;;25.97;18.57;;;6.40;87.50;;;;;;4884633;29;20661;-91
2023/12/20 12:47:06;;;;;;;30.10;15.50;;;6.30;87.80;;;;;;4899051;29;20702;-91